createdAt,value
2022-08-20T00:00:20.809Z,88.47
2022-08-20T00:03:38.876Z,88.50
2022-08-20T00:06:41.664Z,88.33
2022-08-20T00:09:44.846Z,88.80
2022-08-20T00:12:48.870Z,87.77
2022-08-20T00:15:52.835Z,88.69
2022-08-20T00:18:55.496Z,88.63
2022-08-20T00:21:58.642Z,87.66
2022-08-20T00:25:02.433Z,88.19
2022-08-20T00:28:07.108Z,88.71
2022-08-20T00:31:12.309Z,89.29
2022-08-20T00:34:15.254Z,88.28
2022-08-20T00:37:17.964Z,87.94
2022-08-20T00:40:34.428Z,87.58
2022-08-20T00:43:42.110Z,88.03
2022-08-20T00:46:45.953Z,87.82
2022-08-20T00:49:48.516Z,87.92
2022-08-20T00:52:53.081Z,87.42
2022-08-20T00:55:56.155Z,87.99
2022-08-20T00:58:59.407Z,88.01
2022-08-20T01:02:02.935Z,87.41
2022-08-20T01:05:09.330Z,87.66
2022-08-20T01:08:12.554Z,88.91
2022-08-20T01:11:22.012Z,88.19
2022-08-20T01:14:27.454Z,87.95
2022-08-20T01:17:32.964Z,87.56
2022-08-20T01:20:39.262Z,87.92
2022-08-20T01:23:51.904Z,88.24
2022-08-20T01:26:55.448Z,88.78
2022-08-20T01:29:59.092Z,88.26
2022-08-20T01:33:02.615Z,89.04
2022-08-20T01:36:06.676Z,89.07
2022-08-20T01:39:13.630Z,89.64
2022-08-20T01:42:21.307Z,90.93
2022-08-20T01:45:26.871Z,90.26
2022-08-20T01:48:30.800Z,90.96
2022-08-20T01:51:33.436Z,90.96
2022-08-20T01:54:36.420Z,90.46
2022-08-20T01:57:39.287Z,90.29
2022-08-20T02:00:42.577Z,90.52
2022-08-20T02:03:45.403Z,89.64
2022-08-20T02:06:57.074Z,89.92
2022-08-20T02:10:00.663Z,89.45
2022-08-20T02:13:05.496Z,90.30
2022-08-20T02:16:08.657Z,89.62
2022-08-20T02:19:17.286Z,89.67
2022-08-20T02:22:24.495Z,89.16
2022-08-20T02:25:31.127Z,88.95
2022-08-20T02:28:34.747Z,89.42
2022-08-20T02:31:38.474Z,88.99
2022-08-20T02:35:03.675Z,89.58
2022-08-20T02:38:07.192Z,89.27
2022-08-20T02:41:10.445Z,90.15
2022-08-20T02:44:14.112Z,90.19
2022-08-20T02:47:17.275Z,91.30
2022-08-20T02:50:22.290Z,91.04
2022-08-20T02:53:29.327Z,91.33
2022-08-20T02:56:32.191Z,91.66
2022-08-20T02:59:34.748Z,91.10
2022-08-20T03:02:37.628Z,91.24
2022-08-20T03:05:44.421Z,91.13
2022-08-20T03:08:47.273Z,91.28
2022-08-20T03:11:49.816Z,90.83
2022-08-20T03:14:52.663Z,91.27
2022-08-20T03:17:55.798Z,91.58
2022-08-20T03:20:58.845Z,90.45
2022-08-20T03:24:01.375Z,90.08
2022-08-20T03:27:04.468Z,90.58
2022-08-20T03:30:09.810Z,90.38
2022-08-20T03:33:12.735Z,90.26
2022-08-20T03:36:15.367Z,90.53
2022-08-20T03:39:25.244Z,90.76
2022-08-20T03:42:27.859Z,91.11
2022-08-20T03:45:32.212Z,91.25
2022-08-20T03:48:34.847Z,90.97
2022-08-20T03:51:57.626Z,91.17
2022-08-20T03:55:00.367Z,90.83
2022-08-20T03:58:06.451Z,90.50
2022-08-20T04:01:12.601Z,90.18
2022-08-20T04:04:32.072Z,90.39
2022-08-20T04:07:34.826Z,90.82
2022-08-20T04:10:38.299Z,90.66
2022-08-20T04:13:43.373Z,91.01
2022-08-20T04:16:46.460Z,90.17
2022-08-20T04:19:51.687Z,90.46
2022-08-20T04:22:58.639Z,90.54
2022-08-20T04:26:02.212Z,90.84
2022-08-20T04:29:05.156Z,90.20
2022-08-20T04:32:08.308Z,89.78
2022-08-20T04:35:18.223Z,90.12
2022-08-20T04:38:24.060Z,90.80
2022-08-20T04:41:27.025Z,91.15
2022-08-20T04:44:29.636Z,91.72
2022-08-20T04:47:34.606Z,91.83
2022-08-20T04:50:38.719Z,92.58
2022-08-20T04:53:42.717Z,92.19
2022-08-20T04:56:45.548Z,92.00
2022-08-20T04:59:48.402Z,93.05
2022-08-20T05:02:50.936Z,92.52
2022-08-20T05:05:54.519Z,92.79
2022-08-20T05:08:58.232Z,93.18
2022-08-20T05:12:01.076Z,93.15
2022-08-20T05:15:05.028Z,93.17
2022-08-20T05:18:08.872Z,93.54
2022-08-20T05:21:11.385Z,93.33
2022-08-20T05:24:18.506Z,93.20
2022-08-20T05:27:24.762Z,93.09
2022-08-20T05:30:33.430Z,91.99
2022-08-20T05:33:38.774Z,92.55
2022-08-20T05:36:49.321Z,92.37
2022-08-20T05:39:52.456Z,92.13
2022-08-20T05:42:55.495Z,91.37
2022-08-20T05:45:58.529Z,91.00
2022-08-20T05:49:02.067Z,90.22
2022-08-20T05:52:05.483Z,90.85
2022-08-20T05:55:09.997Z,91.76
2022-08-20T05:58:19.025Z,92.07
2022-08-20T06:01:22.078Z,91.48
2022-08-20T06:04:24.991Z,90.30
2022-08-20T06:07:28.729Z,90.04
2022-08-20T06:10:32.070Z,90.03
2022-08-20T06:13:34.756Z,90.21
2022-08-20T06:16:37.770Z,89.71
2022-08-20T06:19:42.744Z,87.77
2022-08-20T06:22:47.154Z,88.83
2022-08-20T06:25:50.446Z,88.58
2022-08-20T06:28:54.265Z,88.42
2022-08-20T06:31:57.093Z,86.27
2022-08-20T06:35:02.295Z,86.38
2022-08-20T06:38:06.611Z,83.47
2022-08-20T06:41:09.435Z,84.46
2022-08-20T06:44:11.947Z,82.80
2022-08-20T06:47:15.172Z,84.01
2022-08-20T06:50:22.052Z,83.16
2022-08-20T06:53:25.497Z,82.55
2022-08-20T06:56:28.238Z,83.81
2022-08-20T06:59:31.245Z,82.31
2022-08-20T07:02:34.355Z,82.08
2022-08-20T07:05:42.274Z,82.29
2022-08-20T07:08:44.960Z,81.80
2022-08-20T07:11:49.216Z,83.13
2022-08-20T07:14:51.728Z,82.69
2022-08-20T07:18:01.837Z,83.54
2022-08-20T07:21:04.579Z,83.72
2022-08-20T07:24:07.783Z,82.97
2022-08-20T07:27:10.729Z,82.82
2022-08-20T07:30:56.654Z,81.90
2022-08-20T07:34:00.081Z,83.02
2022-08-20T07:37:03.561Z,83.08
2022-08-20T07:40:07.078Z,83.13
2022-08-20T07:43:10.899Z,83.25
2022-08-20T07:46:17.703Z,82.82
2022-08-20T07:49:23.651Z,81.38
2022-08-20T07:52:26.275Z,80.84
2022-08-20T07:55:30.299Z,81.19
2022-08-20T07:58:33.352Z,81.90
2022-08-20T08:01:36.660Z,81.58
2022-08-20T08:04:39.881Z,81.72
2022-08-20T08:07:43.881Z,81.72
2022-08-20T08:10:48.115Z,82.75
2022-08-20T08:14:02.160Z,83.79
2022-08-20T08:17:06.045Z,82.60
2022-08-20T08:20:09.556Z,82.73
2022-08-20T08:23:24.684Z,82.56
2022-08-20T08:26:34.311Z,82.94
2022-08-20T08:29:37.593Z,82.88
2022-08-20T08:33:02.940Z,83.84
2022-08-20T08:36:09.843Z,84.90
2022-08-20T08:39:12.595Z,85.80
2022-08-20T08:42:30.256Z,83.80
2022-08-20T08:45:45.791Z,84.68
2022-08-20T08:48:51.112Z,85.94
2022-08-20T08:51:59.102Z,86.54
2022-08-20T08:55:04.966Z,85.83
2022-08-20T08:58:17.147Z,86.39
2022-08-20T09:01:55.288Z,86.95
2022-08-20T09:04:45.412Z,86.62
2022-08-20T09:07:49.882Z,86.90
2022-08-20T09:10:53.485Z,88.34
2022-08-20T09:13:56.839Z,88.60
2022-08-20T09:16:59.404Z,89.54
2022-08-20T09:20:02.670Z,89.22
2022-08-20T09:23:06.730Z,87.93
2022-08-20T09:26:09.714Z,87.60
2022-08-20T09:29:12.538Z,86.33
2022-08-20T09:32:21.349Z,86.99
2022-08-20T09:35:23.931Z,86.93
2022-08-20T09:38:26.988Z,87.35
2022-08-20T09:41:30.889Z,86.96
2022-08-20T09:44:36.719Z,87.38
2022-08-20T09:47:54.717Z,89.39
2022-08-20T09:51:00.314Z,90.24
2022-08-20T09:54:02.888Z,90.05
2022-08-20T09:57:07.454Z,90.80
2022-08-20T10:00:12.390Z,91.21
2022-08-20T10:03:16.506Z,90.31
2022-08-20T10:06:20.716Z,92.06
2022-08-20T10:09:23.723Z,93.29
2022-08-20T10:12:26.657Z,92.93
2022-08-20T10:15:30.400Z,93.07
2022-08-20T10:18:34.759Z,91.89
2022-08-20T10:21:39.036Z,92.90
2022-08-20T10:24:42.387Z,91.85
2022-08-20T10:27:45.082Z,92.66
2022-08-20T10:30:47.936Z,90.49
2022-08-20T10:33:50.520Z,90.56
2022-08-20T10:36:53.432Z,87.72
2022-08-20T10:39:56.696Z,87.28
2022-08-20T10:42:59.578Z,87.13
2022-08-20T10:46:02.476Z,88.38
2022-08-20T10:49:05.284Z,86.50
2022-08-20T10:52:07.903Z,87.39
2022-08-20T10:55:11.718Z,89.34
2022-08-20T10:58:14.479Z,87.62
2022-08-20T11:01:32.641Z,87.17
2022-08-20T11:04:36.934Z,87.84
2022-08-20T11:07:55.339Z,87.80
2022-08-20T11:10:58.948Z,87.10
2022-08-20T11:14:01.827Z,86.34
2022-08-20T11:17:05.007Z,86.15
2022-08-20T11:20:08.838Z,86.46
2022-08-20T11:23:11.402Z,87.36
2022-08-20T11:26:21.434Z,87.35
2022-08-20T11:29:24.866Z,88.24
2022-08-20T11:32:27.858Z,88.75
2022-08-20T11:35:43.264Z,88.25
2022-08-20T11:38:53.171Z,86.45
2022-08-20T11:41:55.937Z,87.97
2022-08-20T11:44:58.748Z,86.45
2022-08-20T11:48:01.277Z,88.80
2022-08-20T11:51:05.151Z,88.32
2022-08-20T11:54:07.651Z,86.14
2022-08-20T11:57:11.314Z,88.19
2022-08-20T12:00:18.757Z,87.97
2022-08-20T12:03:21.720Z,85.46
2022-08-20T12:06:24.358Z,85.45
2022-08-20T12:09:27.175Z,86.35
2022-08-20T12:12:29.669Z,85.87
2022-08-20T12:15:34.346Z,85.51
2022-08-20T12:18:37.027Z,86.51
2022-08-20T12:21:39.880Z,84.00
2022-08-20T12:24:42.455Z,85.97
2022-08-20T12:27:45.873Z,83.75
2022-08-20T12:30:48.513Z,82.88
2022-08-20T12:33:51.326Z,84.18
2022-08-20T12:37:05.351Z,83.98
2022-08-20T12:40:11.941Z,83.30
2022-08-20T12:43:14.557Z,82.45
2022-08-20T12:46:19.043Z,85.28
2022-08-20T12:49:21.571Z,84.69
2022-08-20T12:52:25.159Z,85.62
2022-08-20T12:55:28.446Z,84.54
2022-08-20T12:58:31.264Z,84.10
2022-08-20T13:01:33.840Z,82.64
2022-08-20T13:04:36.805Z,83.08
2022-08-20T13:07:40.397Z,84.07
2022-08-20T13:10:45.747Z,85.44
2022-08-20T13:13:48.422Z,84.75
2022-08-20T13:16:56.494Z,85.37
2022-08-20T13:19:59.129Z,85.22
2022-08-20T13:23:04.017Z,84.72
2022-08-20T13:26:06.992Z,84.42
2022-08-20T13:29:09.876Z,84.78
2022-08-20T13:32:12.759Z,85.29
2022-08-20T13:35:15.648Z,84.80
2022-08-20T13:38:18.346Z,84.10
2022-08-20T13:41:21.242Z,85.58
2022-08-20T13:44:32.835Z,83.94
2022-08-20T13:47:37.587Z,83.20
2022-08-20T13:50:40.315Z,83.49
2022-08-20T13:53:43.193Z,83.12
2022-08-20T13:56:46.605Z,83.37
2022-08-20T13:59:53.256Z,81.63
2022-08-20T14:02:56.012Z,82.22
2022-08-20T14:06:00.539Z,82.47
2022-08-20T14:09:03.122Z,82.55
2022-08-20T14:12:06.689Z,81.41
2022-08-20T14:15:10.136Z,80.60
2022-08-20T14:18:14.529Z,80.58
2022-08-20T14:21:18.326Z,81.10
2022-08-20T14:24:21.150Z,79.81
2022-08-20T14:27:27.812Z,79.36
2022-08-20T14:30:34.094Z,78.38
2022-08-20T14:33:37.807Z,78.62
2022-08-20T14:36:43.050Z,78.97
2022-08-20T14:39:47.648Z,78.03
2022-08-20T14:42:54.863Z,78.63
2022-08-20T14:45:57.459Z,78.80
2022-08-20T14:49:00.341Z,78.96
2022-08-20T14:52:03.071Z,78.28
2022-08-20T14:55:09.425Z,78.44
2022-08-20T14:58:12.924Z,78.77
2022-08-20T15:01:15.915Z,78.67
2022-08-20T15:04:19.467Z,79.88
2022-08-20T15:07:23.786Z,80.09
2022-08-20T15:10:30.224Z,79.50
2022-08-20T15:13:33.072Z,79.67
2022-08-20T15:16:35.819Z,78.89
2022-08-20T15:19:38.668Z,80.01
2022-08-20T15:22:41.960Z,79.89
2022-08-20T15:25:44.846Z,79.84
2022-08-20T15:28:47.622Z,79.91
2022-08-20T15:31:51.369Z,78.42
2022-08-20T15:34:53.889Z,80.28
2022-08-20T15:37:58.639Z,79.01
2022-08-20T15:41:01.553Z,78.83
2022-08-20T15:44:04.688Z,78.55
2022-08-20T15:47:16.437Z,78.53
2022-08-20T15:50:33.567Z,78.80
2022-08-20T15:53:41.778Z,78.36
2022-08-20T15:57:01.937Z,78.86
2022-08-20T16:00:11.375Z,78.91
2022-08-20T16:03:23.901Z,79.93
2022-08-20T16:06:31.262Z,79.50
2022-08-20T16:10:06.790Z,79.81
2022-08-20T16:13:31.616Z,79.57
2022-08-20T16:16:43.824Z,79.36
2022-08-20T16:19:56.140Z,79.72
2022-08-20T16:22:59.052Z,80.17
2022-08-20T16:26:20.412Z,81.07
2022-08-20T16:30:04.366Z,81.41
2022-08-20T16:33:11.534Z,81.94
2022-08-20T16:36:57.105Z,81.56
2022-08-20T16:40:21.652Z,81.50
2022-08-20T16:43:31.967Z,81.08
2022-08-20T16:46:38.267Z,80.98
2022-08-20T16:49:48.046Z,81.76
2022-08-20T16:52:53.760Z,82.31
2022-08-20T16:55:56.766Z,81.64
2022-08-20T16:59:26.439Z,81.78
2022-08-20T17:02:30.127Z,82.54
2022-08-20T17:05:38.470Z,82.37
2022-08-20T17:08:48.176Z,82.21
2022-08-20T17:11:52.361Z,82.43
2022-08-20T17:14:57.531Z,82.75
2022-08-20T17:18:26.534Z,82.80
2022-08-20T17:21:35.534Z,82.64
2022-08-20T17:24:38.638Z,82.83
2022-08-20T17:27:41.512Z,83.08
2022-08-20T17:30:44.395Z,82.92
2022-08-20T17:33:47.229Z,83.07
2022-08-20T17:36:54.187Z,83.34
2022-08-20T17:40:06.670Z,83.16
2022-08-20T17:43:10.788Z,83.24
2022-08-20T17:46:16.560Z,83.40
2022-08-20T17:49:23.453Z,83.65
2022-08-20T17:52:33.100Z,83.72
2022-08-20T21:08:02.404Z,91.28
2022-08-20T21:11:05.431Z,91.61
2022-08-20T21:14:08.042Z,91.45
2022-08-20T21:17:14.931Z,91.16
2022-08-20T21:20:17.621Z,90.55
2022-08-20T21:23:20.471Z,90.80
2022-08-20T21:26:42.860Z,91.05
2022-08-20T21:29:45.839Z,91.90
2022-08-20T21:32:49.040Z,92.10
2022-08-20T21:35:52.018Z,92.57
2022-08-20T21:38:54.568Z,92.95
2022-08-20T21:41:59.563Z,92.39
2022-08-20T21:45:02.521Z,92.42
2022-08-20T21:48:07.497Z,93.98
2022-08-20T21:51:10.108Z,93.19
2022-08-20T21:54:12.898Z,92.71
2022-08-20T21:57:27.062Z,92.81
2022-08-20T22:00:45.492Z,92.22
2022-08-20T22:03:49.608Z,91.69
2022-08-20T22:06:54.609Z,91.81
2022-08-20T22:09:57.431Z,91.43
2022-08-20T22:12:59.971Z,91.24
2022-08-20T22:16:06.355Z,91.32
2022-08-20T22:19:10.754Z,91.55
2022-08-20T22:22:17.496Z,91.19
2022-08-20T22:25:20.097Z,91.20
2022-08-20T22:28:23.426Z,91.49
2022-08-20T22:31:29.024Z,91.55
2022-08-20T22:34:34.145Z,91.44
2022-08-20T22:37:36.893Z,91.65
2022-08-20T22:40:39.765Z,91.61
2022-08-20T22:43:55.646Z,91.61
2022-08-20T22:47:06.309Z,91.76
2022-08-20T22:50:09.740Z,91.47
2022-08-20T22:53:13.740Z,91.77
2022-08-20T22:56:21.897Z,92.30
2022-08-20T22:59:25.855Z,91.58
2022-08-20T23:02:28.377Z,92.22
2022-08-20T23:05:34.014Z,91.80
2022-08-20T23:08:38.023Z,92.23
2022-08-20T23:11:41.073Z,91.53
2022-08-20T23:14:43.617Z,92.10
2022-08-20T23:17:46.817Z,91.64
2022-08-20T23:20:53.643Z,91.17
2022-08-20T23:23:56.473Z,91.11
2022-08-20T23:26:59.904Z,91.27
2022-08-20T23:30:04.422Z,91.20
2022-08-20T23:33:07.003Z,91.49
2022-08-20T23:36:10.842Z,91.03
2022-08-20T23:39:13.743Z,90.66
2022-08-20T23:42:17.245Z,90.29
2022-08-20T23:45:20.501Z,90.85
2022-08-20T23:48:23.354Z,90.92
2022-08-20T23:51:25.963Z,91.27
2022-08-20T23:54:30.821Z,91.59
2022-08-20T23:57:34.381Z,91.27
